Time;durP1;ratioP1;P1;durP2;ratioP2;P2;SDS_P1;SDS_P2;PMS_P1;PMS_P2;Temp;Humidity;BMP_temperature;BMP_pressure;BME280_temperature;BME280_humidity;BME280_pressure;Samples;Min_cycle;Max_cycle;Signal;HPM_P1;HPM_P2
2022/06/15 00:01:53;;;;;;;4.40;3.37;;;22.20;75.60;;;;;;5031418;28;20244;-80
2022/06/15 00:04:20;;;;;;;5.67;3.00;;;22.20;76.00;;;;;;5036825;28;20237;-81
2022/06/15 00:06:47;;;;;;;9.60;3.33;;;22.10;76.20;;;;;;5053416;28;20198;-80
2022/06/15 00:09:15;;;;;;;5.87;3.23;;;22.10;76.50;;;;;;5033844;28;20210;-81
2022/06/15 00:11:43;;;;;;;6.67;3.63;;;22.10;76.60;;;;;;5051248;28;20267;-81
2022/06/15 00:14:15;;;;;;;3.33;2.80;;;22.00;76.60;;;;;;5045132;28;20202;-81
2022/06/15 00:16:43;;;;;;;8.63;3.50;;;22.00;76.70;;;;;;5035107;28;20583;-81
2022/06/15 00:19:11;;;;;;;5.37;4.07;;;22.00;76.90;;;;;;5035192;28;20865;-80
2022/06/15 00:21:38;;;;;;;6.03;3.63;;;21.90;77.10;;;;;;5048829;28;20194;-81
2022/06/15 00:24:06;;;;;;;3.60;2.87;;;22.00;77.30;;;;;;5037901;28;20240;-81
2022/06/15 00:26:33;;;;;;;6.07;3.87;;;22.00;77.30;;;;;;5050951;28;20289;-80
2022/06/15 00:29:01;;;;;;;7.90;3.87;;;21.90;77.20;;;;;;5032716;28;20278;-80
2022/06/15 00:31:28;;;;;;;7.30;3.80;;;21.90;77.20;;;;;;5052261;28;20278;-81
2022/06/15 00:33:56;;;;;;;6.80;3.87;;;21.90;77.30;;;;;;5054067;28;20225;-80
2022/06/15 00:36:24;;;;;;;3.83;3.50;;;21.90;77.40;;;;;;5032028;28;20812;-80
2022/06/15 00:38:55;;;;;;;9.87;3.83;;;21.80;77.50;;;;;;5033007;28;20216;-81
2022/06/15 00:41:31;;;;;;;8.13;3.83;;;21.80;77.70;;;;;;5019952;28;20302;-84
2022/06/15 00:44:16;;;;;;;7.03;3.83;;;21.80;78.00;;;;;;5047943;28;20564;-81
2022/06/15 00:46:46;;;;;;;7.00;3.73;;;21.80;78.10;;;;;;5054545;28;20211;-80
2022/06/15 00:49:20;;;;;;;6.80;3.40;;;21.80;78.20;;;;;;5041434;28;20262;-80
2022/06/15 00:51:51;;;;;;;6.10;3.60;;;21.80;78.50;;;;;;5061431;28;20607;-80
2022/06/15 00:54:19;;;;;;;4.97;3.50;;;21.80;78.60;;;;;;5047081;28;20696;-80
2022/06/15 00:56:46;;;;;;;4.93;3.70;;;21.80;78.70;;;;;;5046812;28;20516;-80
2022/06/15 00:59:32;;;;;;;6.73;3.90;;;21.70;78.60;;;;;;5049427;28;20211;-80
2022/06/15 01:02:00;;;;;;;5.57;3.80;;;21.70;78.80;;;;;;5051463;28;20201;-81
2022/06/15 01:04:39;;;;;;;6.07;4.43;;;21.60;78.80;;;;;;5043333;28;20283;-80
2022/06/15 01:07:21;;;;;;;6.33;4.17;;;21.60;79.10;;;;;;5037066;28;20253;-81
2022/06/15 01:10:01;;;;;;;9.77;4.50;;;21.60;79.20;;;;;;5052597;28;20641;-81
2022/06/15 01:12:38;;;;;;;7.30;4.80;;;21.60;79.40;;;;;;5052933;28;20560;-81
2022/06/15 01:15:39;;;;;;;8.33;5.03;;;21.60;79.60;;;;;;5036304;28;20295;-81
2022/06/15 01:18:26;;;;;;;5.57;4.97;;;21.60;79.70;;;;;;5050249;28;20256;-81
2022/06/15 01:21:08;;;;;;;5.20;4.60;;;21.60;79.70;;;;;;5053033;28;20218;-81
2022/06/15 01:24:26;;;;;;;6.30;4.87;;;21.60;79.90;;;;;;5050818;28;20221;-80
2022/06/15 01:27:17;;;;;;;6.40;4.93;;;21.60;80.10;;;;;;5039993;28;20240;-82
2022/06/15 01:29:57;;;;;;;7.50;4.47;;;21.60;80.40;;;;;;5049295;28;20614;-81
2022/06/15 01:32:36;;;;;;;9.27;4.93;;;21.60;80.40;;;;;;5054890;28;20212;-81
2022/06/15 01:35:14;;;;;;;10.20;5.10;;;21.60;80.40;;;;;;5036530;28;20292;-81
2022/06/15 01:37:50;;;;;;;5.60;4.07;;;21.60;80.40;;;;;;5055155;28;20228;-81
2022/06/15 01:40:25;;;;;;;5.43;3.87;;;21.70;80.40;;;;;;5054518;28;20210;-81
2022/06/15 01:42:59;;;;;;;6.60;4.00;;;21.70;80.40;;;;;;5056393;28;20263;-80
2022/06/15 01:45:30;;;;;;;4.10;3.70;;;21.70;80.30;;;;;;5060085;28;20848;-81
2022/06/15 01:48:02;;;;;;;6.50;4.57;;;21.70;80.10;;;;;;5049976;28;20559;-81
2022/06/15 01:50:44;;;;;;;7.23;4.53;;;21.80;80.20;;;;;;5052966;28;20336;-80
2022/06/15 01:53:19;;;;;;;6.47;3.90;;;21.80;80.20;;;;;;5046912;28;20292;-80
2022/06/15 01:55:47;;;;;;;4.07;3.50;;;21.90;80.20;;;;;;5069247;28;20212;-81
2022/06/15 01:58:18;;;;;;;5.07;3.77;;;21.90;80.20;;;;;;5042374;28;20267;-80
2022/06/15 02:00:57;;;;;;;6.57;4.37;;;21.90;80.20;;;;;;5060496;28;20306;-81
2022/06/15 02:03:58;;;;;;;5.57;5.07;;;22.00;80.30;;;;;;5043429;28;20221;-81
2022/06/15 02:06:57;;;;;;;6.07;3.73;;;21.90;80.20;;;;;;5047445;28;20201;-81
2022/06/15 02:09:47;;;;;;;6.10;4.33;;;21.90;80.30;;;;;;5079168;28;20201;-81
2022/06/15 02:12:20;;;;;;;5.33;4.03;;;21.90;80.50;;;;;;5057959;28;20255;-80
2022/06/15 02:14:56;;;;;;;5.73;3.83;;;21.90;80.60;;;;;;5036482;28;20210;-80
2022/06/15 02:17:38;;;;;;;5.37;4.27;;;21.90;80.80;;;;;;5047156;28;20276;-80
2022/06/15 02:20:22;;;;;;;6.37;4.77;;;21.90;80.90;;;;;;5068516;28;20217;-80
2022/06/15 02:22:53;;;;;;;5.83;3.40;;;21.90;81.10;;;;;;5061196;28;20369;-80
2022/06/15 02:25:24;;;;;;;4.97;4.03;;;21.90;81.00;;;;;;5058347;28;20220;-80
2022/06/15 02:27:55;;;;;;;5.33;4.23;;;21.90;81.00;;;;;;5054706;28;20618;-80
2022/06/15 02:30:26;;;;;;;8.47;4.47;;;21.90;81.00;;;;;;5041978;28;20296;-80
2022/06/15 02:33:10;;;;;;;12.00;4.93;;;21.90;81.10;;;;;;5042381;28;20213;-80
2022/06/15 02:35:38;;;;;;;6.77;4.23;;;21.80;81.10;;;;;;5057856;28;20259;-80
2022/06/15 02:38:11;;;;;;;7.77;4.37;;;21.80;81.30;;;;;;5043515;28;20403;-81
2022/06/15 02:40:38;;;;;;;7.07;4.37;;;21.80;81.30;;;;;;5052249;28;20203;-80
2022/06/15 02:43:07;;;;;;;7.83;5.77;;;21.80;81.30;;;;;;5035730;28;20240;-81
2022/06/15 02:45:38;;;;;;;10.60;6.10;;;21.80;81.50;;;;;;5057277;28;20197;-80
2022/06/15 02:48:07;;;;;;;5.47;4.90;;;21.80;81.70;;;;;;5055572;28;20206;-81
2022/06/15 02:50:43;;;;;;;6.87;4.67;;;21.70;82.00;;;;;;5036469;28;20206;-80
2022/06/15 02:53:17;;;;;;;7.00;5.40;;;21.80;82.30;;;;;;5041668;28;20279;-80
2022/06/15 02:55:46;;;;;;;7.27;5.37;;;21.80;82.40;;;;;;5057567;28;20217;-81
2022/06/15 02:58:27;;;;;;;5.93;5.30;;;21.80;82.50;;;;;;5050436;28;20213;-80
2022/06/15 03:00:58;;;;;;;7.20;5.37;;;21.80;82.40;;;;;;5037240;28;20648;-80
2022/06/15 03:03:30;;;;;;;6.50;4.83;;;21.80;83.20;;;;;;5055029;28;20691;-80
2022/06/15 03:06:11;;;;;;;7.50;5.33;;;21.80;82.60;;;;;;5057047;28;20255;-80
2022/06/15 03:08:39;;;;;;;9.87;5.47;;;21.80;82.60;;;;;;5036612;28;20557;-80
2022/06/15 03:11:16;;;;;;;6.20;5.60;;;21.80;82.60;;;;;;5050557;28;20838;-80
2022/06/15 03:13:43;;;;;;;8.77;5.77;;;21.80;82.80;;;;;;5045442;28;20633;-81
2022/06/15 03:16:10;;;;;;;6.90;5.40;;;21.80;82.90;;;;;;5071204;28;20201;-81
2022/06/15 03:18:41;;;;;;;7.20;5.13;;;21.90;83.00;;;;;;5037605;28;20213;-80
2022/06/15 03:21:09;;;;;;;8.90;5.90;;;21.90;83.00;;;;;;5073598;28;20606;-80
2022/06/15 03:23:37;;;;;;;8.93;5.77;;;21.80;83.20;;;;;;5056625;28;20324;-81
2022/06/15 03:26:07;;;;;;;8.57;5.63;;;21.80;83.40;;;;;;5056972;28;20201;-81
2022/06/15 03:28:36;;;;;;;6.77;5.90;;;21.80;83.50;;;;;;5040972;28;20205;-81
2022/06/15 03:31:07;;;;;;;6.63;5.73;;;21.80;83.60;;;;;;5066773;28;20205;-81
2022/06/15 03:33:34;;;;;;;6.63;5.83;;;21.80;83.80;;;;;;5074581;28;20292;-80
2022/06/15 03:36:07;;;;;;;8.33;5.90;;;21.70;84.00;;;;;;5054197;28;20657;-79
2022/06/15 03:38:35;;;;;;;8.00;5.93;;;21.70;84.20;;;;;;5052513;28;20228;-80
2022/06/15 03:41:18;;;;;;;7.10;6.23;;;21.70;84.40;;;;;;5067329;28;20221;-81
2022/06/15 03:43:47;;;;;;;12.93;6.23;;;21.70;84.70;;;;;;5044682;28;20322;-81
2022/06/15 03:46:15;;;;;;;9.13;6.03;;;21.60;84.80;;;;;;5056746;28;20209;-81
2022/06/15 03:48:45;;;;;;;8.40;5.97;;;21.60;84.90;;;;;;5040436;28;20291;-80
2022/06/15 03:51:14;;;;;;;8.73;5.80;;;21.60;85.00;;;;;;5057033;28;20201;-80
2022/06/15 03:53:52;;;;;;;7.57;6.00;;;21.60;85.20;;;;;;5053994;28;20215;-80
2022/06/15 03:56:19;;;;;;;6.47;5.87;;;21.70;85.20;;;;;;5040102;28;20638;-80
2022/06/15 03:58:47;;;;;;;9.33;6.77;;;21.60;85.20;;;;;;5039732;28;20202;-80
2022/06/15 04:01:20;;;;;;;6.67;5.93;;;21.60;85.30;;;;;;5041914;28;20220;-80
2022/06/15 04:03:48;;;;;;;8.33;6.60;;;21.70;85.30;;;;;;5041814;28;20593;-80
2022/06/15 04:06:21;;;;;;;10.03;6.10;;;21.70;85.30;;;;;;5057114;28;20193;-80
2022/06/15 04:08:52;;;;;;;6.83;5.67;;;21.70;85.30;;;;;;5058062;28;20201;-81
2022/06/15 04:14:18;;;;;;;8.70;6.43;;;21.80;85.20;;;;;;5073195;28;20649;-80
2022/06/15 04:16:53;;;;;;;9.23;6.50;;;21.80;85.20;;;;;;5038159;28;20216;-80
2022/06/15 04:19:32;;;;;;;8.53;6.20;;;21.80;85.20;;;;;;5057144;28;20212;-80
2022/06/15 04:22:00;;;;;;;8.67;6.30;;;21.80;85.40;;;;;;5031122;28;20275;-80
2022/06/15 04:24:31;;;;;;;7.27;5.97;;;21.80;85.40;;;;;;5069604;28;20351;-81
2022/06/15 04:27:00;;;;;;;6.13;5.03;;;21.80;85.40;;;;;;5070624;28;20210;-80
2022/06/15 04:29:28;;;;;;;8.00;6.47;;;21.90;85.50;;;;;;5052777;28;20198;-80
2022/06/15 04:31:59;;;;;;;6.63;5.93;;;21.90;85.50;;;;;;5054810;28;20210;-81
2022/06/15 04:34:29;;;;;;;8.17;5.87;;;21.90;85.40;;;;;;5035961;28;20221;-80
2022/06/15 04:36:57;;;;;;;8.07;5.80;;;22.00;85.40;;;;;;5063147;28;20237;-80
2022/06/15 04:39:24;;;;;;;8.37;5.63;;;22.10;85.20;;;;;;5057839;28;20220;-80
2022/06/15 04:41:52;;;;;;;8.97;6.07;;;22.10;85.10;;;;;;5027839;28;20199;-80
2022/06/15 04:44:19;;;;;;;6.93;6.23;;;22.20;85.00;;;;;;5039858;28;20251;-80
2022/06/15 04:46:51;;;;;;;7.10;5.47;;;22.20;84.90;;;;;;5040277;28;20202;-80
2022/06/15 04:49:22;;;;;;;8.13;6.03;;;22.30;84.80;;;;;;5073539;28;20190;-80
2022/06/15 04:51:52;;;;;;;9.43;6.07;;;22.40;84.80;;;;;;5033631;28;20285;-81
2022/06/15 04:54:22;;;;;;;10.87;5.70;;;22.40;84.60;;;;;;5055685;28;20563;-80
2022/06/15 04:56:53;;;;;;;6.63;5.90;;;22.50;85.20;;;;;;5066005;28;20259;-80
2022/06/15 04:59:21;;;;;;;8.40;6.43;;;22.50;84.30;;;;;;5038322;28;20649;-80
2022/06/15 05:01:50;;;;;;;7.47;5.90;;;22.60;84.10;;;;;;5038767;28;20209;-79
2022/06/15 05:04:19;;;;;;;11.27;5.27;;;22.70;84.10;;;;;;5040405;28;20313;-80
2022/06/15 05:06:47;;;;;;;7.83;5.77;;;22.80;84.10;;;;;;5056467;28;20264;-81
2022/06/15 05:09:16;;;;;;;6.20;5.60;;;22.80;83.90;;;;;;5058863;28;20204;-80
2022/06/15 05:11:47;;;;;;;6.40;5.70;;;23.00;83.80;;;;;;5056380;28;20202;-80
2022/06/15 05:14:16;;;;;;;6.03;5.27;;;23.10;83.60;;;;;;5054364;28;20214;-80
2022/06/15 05:16:46;;;;;;;6.57;5.37;;;23.30;83.10;;;;;;5042859;28;20205;-79
2022/06/15 05:19:17;;;;;;;7.00;4.80;;;23.40;82.60;;;;;;5051482;28;20511;-79
2022/06/15 05:21:46;;;;;;;5.33;4.63;;;23.60;82.20;;;;;;5070952;28;20554;-81
2022/06/15 05:24:18;;;;;;;6.23;4.37;;;23.80;81.80;;;;;;5057361;28;20226;-80
2022/06/15 05:27:09;;;;;;;5.27;4.20;;;23.90;81.40;;;;;;5046608;28;20202;-80
2022/06/15 05:29:39;;;;;;;7.27;4.20;;;24.10;80.80;;;;;;5043758;28;20201;-80
2022/06/15 05:32:10;;;;;;;6.70;3.90;;;24.30;80.20;;;;;;5062353;28;20194;-80
2022/06/15 05:34:39;;;;;;;5.83;3.60;;;24.50;79.40;;;;;;5060222;28;20271;-80
2022/06/15 05:37:06;;;;;;;5.70;3.90;;;24.60;79.80;;;;;;5058366;28;20207;-79
2022/06/15 05:39:36;;;;;;;5.57;4.30;;;24.70;78.90;;;;;;5044315;28;20211;-80
2022/06/15 05:42:04;;;;;;;5.07;3.37;;;24.90;78.30;;;;;;5031627;28;20646;-80
2022/06/15 05:47:11;;;;;;;6.70;3.40;;;25.10;77.40;;;;;;5056295;28;20289;-79
2022/06/15 05:49:54;;;;;;;5.93;3.67;;;25.20;77.50;;;;;;5058247;28;20256;-80
2022/06/15 05:52:29;;;;;;;5.00;3.70;;;25.40;76.80;;;;;;5066359;28;20201;-80
2022/06/15 05:54:58;;;;;;;3.90;3.43;;;25.50;76.30;;;;;;5058662;28;20536;-81
2022/06/15 05:57:27;;;;;;;4.70;3.30;;;25.60;76.20;;;;;;5055285;28;20206;-80
2022/06/15 06:00:00;;;;;;;5.60;2.93;;;25.70;76.20;;;;;;5058139;28;20521;-80
2022/06/15 06:02:28;;;;;;;4.40;3.10;;;25.80;75.50;;;;;;5049019;28;20216;-80
2022/06/15 06:04:56;;;;;;;6.30;3.03;;;26.00;75.40;;;;;;5061852;28;20565;-80
2022/06/15 06:07:24;;;;;;;4.40;2.80;;;26.20;75.10;;;;;;5061930;28;20248;-80
2022/06/15 06:09:51;;;;;;;3.27;2.70;;;26.30;74.30;;;;;;5058573;28;20218;-81
2022/06/15 06:12:19;;;;;;;3.90;2.83;;;26.40;73.60;;;;;;5064746;28;20280;-81
2022/06/15 06:14:47;;;;;;;8.30;2.67;;;26.50;73.30;;;;;;5060399;28;20199;-80
2022/06/15 06:17:14;;;;;;;2.40;2.20;;;26.60;73.10;;;;;;5057059;28;20281;-81
2022/06/15 06:19:41;;;;;;;5.00;2.57;;;26.60;72.90;;;;;;5039856;28;20645;-81
2022/06/15 06:22:09;;;;;;;3.87;2.37;;;26.60;72.50;;;;;;5061832;28;20308;-81
2022/06/15 06:24:36;;;;;;;4.03;2.70;;;26.70;72.60;;;;;;5058313;28;20210;-81
2022/06/15 06:27:05;;;;;;;5.30;2.70;;;26.80;73.10;;;;;;5072878;28;20255;-81
2022/06/15 06:29:34;;;;;;;6.60;2.73;;;27.00;72.80;;;;;;5077068;28;20929;-81
2022/06/15 06:32:02;;;;;;;5.60;2.90;;;27.10;72.70;;;;;;5042015;28;20283;-80
2022/06/15 06:34:30;;;;;;;2.87;2.67;;;27.30;71.90;;;;;;5063198;28;20202;-82
2022/06/15 06:37:02;;;;;;;3.50;2.73;;;27.40;71.30;;;;;;5040035;28;20214;-81
2022/06/15 06:39:31;;;;;;;13.57;2.87;;;27.50;70.90;;;;;;5039863;28;20662;-81
2022/06/15 06:42:00;;;;;;;4.33;2.30;;;27.60;70.80;;;;;;5065952;28;20481;-82
2022/06/15 06:44:34;;;;;;;2.87;2.40;;;27.70;70.50;;;;;;5063161;28;20241;-81
2022/06/15 06:47:01;;;;;;;4.03;3.10;;;27.90;70.40;;;;;;5056032;28;20206;-81
2022/06/15 06:49:29;;;;;;;4.40;3.00;;;28.00;69.50;;;;;;5055457;28;20637;-81
2022/06/15 06:51:57;;;;;;;5.17;2.77;;;28.10;69.30;;;;;;5056020;28;20206;-81
2022/06/15 06:54:25;;;;;;;6.23;3.23;;;28.10;68.90;;;;;;5041403;28;20233;-80
2022/06/15 06:56:52;;;;;;;3.53;2.87;;;28.10;68.70;;;;;;5071088;28;20577;-81
2022/06/15 06:59:32;;;;;;;3.40;2.70;;;28.20;69.30;;;;;;5047698;28;20214;-81
2022/06/15 07:02:00;;;;;;;5.63;2.73;;;28.30;69.30;;;;;;5046928;28;20273;-81
2022/06/15 07:04:29;;;;;;;5.87;3.30;;;28.50;69.00;;;;;;5039905;28;20225;-82
2022/06/15 07:06:59;;;;;;;4.97;3.53;;;28.70;68.70;;;;;;5054577;28;20213;-81
2022/06/15 07:09:30;;;;;;;5.10;3.43;;;28.80;67.70;;;;;;5063961;28;20567;-81
2022/06/15 07:12:03;;;;;;;6.97;3.73;;;29.00;67.30;;;;;;5056523;28;20289;-81
2022/06/15 07:14:30;;;;;;;3.90;3.50;;;29.20;66.40;;;;;;5055917;28;20620;-81
2022/06/15 07:16:59;;;;;;;4.93;3.30;;;29.20;65.70;;;;;;5053817;28;20224;-81
2022/06/15 07:19:26;;;;;;;3.90;2.90;;;29.40;65.90;;;;;;5043973;28;20711;-80
2022/06/15 07:21:53;;;;;;;6.93;3.50;;;29.50;65.50;;;;;;5051238;28;20207;-80
2022/06/15 07:24:21;;;;;;;7.13;3.90;;;29.60;65.00;;;;;;5054252;28;20221;-81
2022/06/15 07:26:48;;;;;;;5.53;3.60;;;29.80;64.80;;;;;;5053766;28;20198;-81
2022/06/15 07:29:19;;;;;;;8.10;4.30;;;29.80;64.50;;;;;;5047906;28;20213;-81
2022/06/15 07:31:54;;;;;;;7.23;3.90;;;29.90;63.10;;;;;;5052554;28;20319;-81
2022/06/15 07:34:22;;;;;;;5.60;3.53;;;30.00;62.30;;;;;;5034575;28;20281;-80
2022/06/15 07:36:50;;;;;;;6.77;3.03;;;30.00;62.40;;;;;;5043360;28;20295;-82
2022/06/15 07:39:27;;;;;;;6.43;3.33;;;30.10;61.90;;;;;;5066723;28;20556;-81
2022/06/15 07:42:03;;;;;;;7.00;3.37;;;30.10;61.60;;;;;;5055098;28;20229;-81
2022/06/15 07:44:30;;;;;;;6.03;3.20;;;30.10;61.90;;;;;;5051111;28;20309;-81
2022/06/15 07:49:55;;;;;;;6.60;3.70;;;30.40;61.40;;;;;;5040580;28;20195;-81
2022/06/15 07:52:45;;;;;;;4.93;3.80;;;30.60;60.50;;;;;;5053147;28;20203;-81
2022/06/15 07:55:20;;;;;;;5.90;3.57;;;30.70;59.90;;;;;;5053363;28;20535;-81
2022/06/15 07:57:47;;;;;;;3.47;3.13;;;30.80;60.30;;;;;;5037349;28;20634;-81
2022/06/15 08:00:16;;;;;;;4.53;3.63;;;30.90;59.60;;;;;;5054132;28;20194;-82
2022/06/15 08:02:43;;;;;;;12.07;3.77;;;30.90;58.20;;;;;;5054525;28;20198;-81
2022/06/15 08:05:11;;;;;;;3.67;3.23;;;30.90;58.50;;;;;;5062619;28;20248;-80
2022/06/15 08:07:38;;;;;;;7.23;4.03;;;30.90;57.60;;;;;;5055028;28;20230;-82
2022/06/15 08:10:06;;;;;;;6.90;3.43;;;30.80;58.10;;;;;;5056711;28;20221;-82
2022/06/15 08:12:34;;;;;;;5.13;3.70;;;30.70;58.60;;;;;;5030829;28;20685;-80
2022/06/15 08:15:05;;;;;;;4.70;3.60;;;30.70;58.70;;;;;;5029939;28;20207;-81
2022/06/15 08:17:46;;;;;;;5.87;3.87;;;30.80;58.40;;;;;;5048518;28;20209;-81
2022/06/15 08:20:20;;;;;;;5.10;3.87;;;30.80;57.10;;;;;;5037453;28;20210;-82
2022/06/15 08:22:51;;;;;;;4.47;3.73;;;30.70;56.90;;;;;;5068889;28;20207;-81
2022/06/15 08:25:22;;;;;;;5.20;3.77;;;30.70;57.60;;;;;;5037569;28;20268;-82
2022/06/15 08:27:50;;;;;;;6.13;3.80;;;30.70;57.60;;;;;;5037609;28;20194;-82
2022/06/15 08:30:18;;;;;;;5.73;4.20;;;30.80;57.80;;;;;;5050737;28;20240;-81
2022/06/15 08:32:46;;;;;;;4.00;3.70;;;31.00;57.70;;;;;;5036715;28;20303;-81
2022/06/15 08:35:13;;;;;;;5.80;3.80;;;31.20;57.40;;;;;;5054045;28;20216;-82
2022/06/15 08:37:41;;;;;;;5.33;3.87;;;31.40;56.80;;;;;;5055921;28;20187;-83
2022/06/15 08:40:18;;;;;;;5.40;3.87;;;31.60;56.50;;;;;;5082246;28;20216;-83
2022/06/15 08:43:01;;;;;;;7.87;3.90;;;31.80;56.20;;;;;;5070587;28;20247;-84
2022/06/15 08:45:50;;;;;;;5.33;3.70;;;32.00;55.60;;;;;;5052465;28;20213;-84
2022/06/15 08:48:46;;;;;;;4.83;3.50;;;32.20;54.60;;;;;;5052782;28;20232;-84
2022/06/15 08:51:41;;;;;;;7.53;4.20;;;32.50;54.10;;;;;;5051177;28;20212;-84
2022/06/15 08:54:29;;;;;;;7.87;4.00;;;32.50;51.90;;;;;;5067267;28;20190;-84
2022/06/15 08:57:06;;;;;;;9.30;3.87;;;32.50;53.30;;;;;;5058032;28;20194;-84
2022/06/15 08:59:45;;;;;;;5.47;4.13;;;32.50;53.30;;;;;;5083451;28;20217;-83
2022/06/15 09:02:21;;;;;;;7.97;4.37;;;32.60;52.70;;;;;;5082345;28;20237;-84
2022/06/15 09:05:14;;;;;;;4.17;3.60;;;32.50;51.40;;;;;;5070181;28;20217;-84
2022/06/15 09:08:00;;;;;;;4.63;3.90;;;32.20;52.80;;;;;;5082396;28;20224;-84
2022/06/15 09:10:39;;;;;;;5.00;3.60;;;32.20;53.30;;;;;;5070444;28;20546;-84
2022/06/15 09:13:13;;;;;;;3.60;3.30;;;32.40;52.60;;;;;;5067163;28;20213;-85
2022/06/15 09:15:50;;;;;;;4.17;3.10;;;32.60;52.50;;;;;;5067246;28;20197;-83
2022/06/15 09:18:37;;;;;;;4.53;3.83;;;32.80;50.80;;;;;;5063360;28;20223;-83
2022/06/15 09:21:14;;;;;;;5.47;3.80;;;32.90;50.80;;;;;;5082111;28;20205;-83
2022/06/15 09:23:59;;;;;;;4.47;4.03;;;33.00;50.10;;;;;;5064339;28;20217;-82
2022/06/15 09:26:37;;;;;;;4.40;3.90;;;33.20;50.10;;;;;;5078099;28;20233;-84
2022/06/15 09:29:05;;;;;;;3.60;3.30;;;33.30;49.50;;;;;;5072707;28;20209;-84
2022/06/15 09:32:33;;;;;;;4.83;3.17;;;33.40;50.50;;;;;;5064771;28;20237;-83
2022/06/15 09:35:31;;;;;;;4.37;3.97;;;33.50;49.70;;;;;;5063355;28;20210;-83
2022/06/15 09:38:01;;;;;;;4.83;3.43;;;33.60;48.90;;;;;;5070419;28;20214;-84
2022/06/15 09:40:56;;;;;;;6.93;4.33;;;33.60;48.70;;;;;;5052638;28;20242;-83
2022/06/15 09:43:47;;;;;;;4.50;4.10;;;33.50;48.20;;;;;;5082197;28;20242;-83
2022/06/15 09:46:23;;;;;;;5.73;3.50;;;33.40;47.40;;;;;;5067689;28;20234;-83
2022/06/15 09:49:10;;;;;;;6.23;4.17;;;33.30;48.40;;;;;;5067643;28;20221;-81
2022/06/15 09:51:39;;;;;;;5.97;3.77;;;33.20;47.20;;;;;;5064077;28;20197;-84
2022/06/15 09:54:29;;;;;;;3.63;3.33;;;33.10;47.60;;;;;;5068093;28;20267;-84
2022/06/15 09:56:57;;;;;;;4.37;3.30;;;33.10;47.90;;;;;;5069049;28;20237;-83
2022/06/15 09:59:33;;;;;;;4.73;3.73;;;33.20;48.20;;;;;;5048825;28;20202;-83
2022/06/15 10:02:15;;;;;;;4.40;3.20;;;33.30;48.40;;;;;;5081121;28;20202;-83
2022/06/15 10:04:48;;;;;;;3.50;3.20;;;33.50;47.70;;;;;;5064191;28;20271;-82
2022/06/15 10:07:40;;;;;;;3.97;3.50;;;33.80;47.80;;;;;;5077304;28;20228;-82
2022/06/15 10:10:30;;;;;;;9.13;3.83;;;34.00;47.00;;;;;;5061794;28;20221;-82
2022/06/15 10:13:18;;;;;;;3.30;2.93;;;34.10;45.60;;;;;;5061673;28;20209;-80
2022/06/15 10:15:57;;;;;;;4.90;3.43;;;34.20;45.00;;;;;;5061638;28;20288;-82
2022/06/15 10:18:51;;;;;;;4.37;3.63;;;34.20;45.60;;;;;;5068479;28;20198;-81
2022/06/15 10:21:29;;;;;;;5.17;3.30;;;34.20;44.00;;;;;;5068488;28;20201;-83
2022/06/15 10:24:19;;;;;;;3.53;3.23;;;34.00;44.60;;;;;;5038744;28;20272;-83
2022/06/15 10:27:16;;;;;;;5.87;4.00;;;33.90;45.50;;;;;;5082839;28;20218;-82
2022/06/15 10:30:00;;;;;;;4.33;3.93;;;33.90;44.40;;;;;;5062652;28;20642;-80
2022/06/15 10:32:31;;;;;;;5.73;3.60;;;33.90;44.00;;;;;;5063765;28;20250;-83
2022/06/15 10:35:18;;;;;;;6.20;3.47;;;33.80;45.60;;;;;;5082751;28;20216;-84
2022/06/15 10:37:54;;;;;;;3.53;3.23;;;33.90;44.60;;;;;;5065390;28;20228;-84
2022/06/15 10:40:31;;;;;;;4.00;3.60;;;34.10;44.70;;;;;;5062830;28;20248;-84
2022/06/15 10:43:07;;;;;;;8.37;3.30;;;34.20;44.90;;;;;;5083249;28;20237;-84
2022/06/15 10:45:54;;;;;;;5.40;4.00;;;34.40;45.60;;;;;;5063398;28;20267;-84
2022/06/15 10:48:26;;;;;;;3.43;2.80;;;34.60;45.20;;;;;;5079914;28;20220;-82
2022/06/15 10:51:09;;;;;;;4.90;4.27;;;34.70;44.90;;;;;;5057954;28;20203;-84
2022/06/15 10:53:46;;;;;;;5.33;3.43;;;34.90;44.20;;;;;;5063912;28;20202;-84
2022/06/15 11:02:38;;;;;;;4.60;3.40;;;35.40;44.10;;;;;;5064541;28;20209;-84
2022/06/15 11:05:17;;;;;;;3.93;3.27;;;35.50;44.20;;;;;;5038118;28;20202;-84
2022/06/15 11:07:52;;;;;;;4.33;3.53;;;35.60;43.60;;;;;;5030723;28;20207;-84
2022/06/15 11:10:20;;;;;;;5.43;3.57;;;35.70;43.60;;;;;;5080508;28;20536;-83
2022/06/15 11:12:57;;;;;;;5.20;3.17;;;35.80;42.90;;;;;;5071681;28;20279;-83
2022/06/15 11:18:41;;;;;;;3.90;3.53;;;35.80;41.80;;;;;;5064551;28;20202;-82
2022/06/15 11:21:15;;;;;;;7.23;3.67;;;35.80;42.60;;;;;;5065990;28;20257;-82
2022/06/15 11:23:55;;;;;;;8.27;3.60;;;35.80;42.80;;;;;;5042675;28;20208;-83
2022/06/15 11:29:50;;;;;;;4.00;3.63;;;35.40;41.80;;;;;;5077261;28;20190;-83
2022/06/15 11:32:34;;;;;;;4.47;3.07;;;35.10;42.30;;;;;;5071048;28;20201;-83
2022/06/15 11:35:14;;;;;;;4.73;3.47;;;35.00;43.10;;;;;;5066578;28;20679;-83
2022/06/15 11:38:19;;;;;;;7.07;3.73;;;34.90;43.10;;;;;;5080088;28;20206;-84
2022/06/15 11:40:55;;;;;;;4.90;3.90;;;34.90;43.60;;;;;;5051226;28;20273;-82
2022/06/15 11:43:33;;;;;;;3.87;3.00;;;34.80;44.00;;;;;;5047497;28;20233;-84
2022/06/15 11:46:12;;;;;;;6.30;3.50;;;34.90;44.90;;;;;;5056079;28;20246;-84
2022/06/15 11:48:52;;;;;;;5.83;3.67;;;34.90;43.50;;;;;;5077346;28;20223;-83
2022/06/15 11:51:41;;;;;;;7.93;3.67;;;34.90;43.40;;;;;;5050547;28;20231;-81
2022/06/15 11:54:20;;;;;;;3.63;3.33;;;34.90;43.80;;;;;;5079709;28;20672;-84
2022/06/15 11:57:15;;;;;;;7.30;3.57;;;34.80;43.60;;;;;;5070965;28;20260;-85
2022/06/15 11:59:47;;;;;;;3.70;3.20;;;34.80;44.50;;;;;;5078414;28;20207;-83
2022/06/15 12:02:26;;;;;;;7.40;3.80;;;34.80;44.80;;;;;;5067911;28;20259;-84
2022/06/15 12:05:46;;;;;;;6.27;3.53;;;34.90;43.30;;;;;;5045790;28;20206;-84
2022/06/15 12:08:29;;;;;;;3.63;3.40;;;34.90;43.90;;;;;;5052893;28;20202;-82
2022/06/15 12:14:24;;;;;;;4.70;3.73;;;35.00;42.30;;;;;;5081062;28;20683;-83
2022/06/15 12:17:04;;;;;;;4.77;3.30;;;34.90;43.90;;;;;;5072140;28;20210;-83
2022/06/15 12:20:01;;;;;;;6.30;3.80;;;34.90;44.00;;;;;;5066920;28;20199;-84
2022/06/15 12:22:46;;;;;;;3.77;3.30;;;34.90;43.50;;;;;;5058477;28;20211;-83
2022/06/15 12:25:15;;;;;;;3.83;3.53;;;34.90;44.40;;;;;;5062065;28;20561;-83
2022/06/15 12:27:53;;;;;;;4.90;3.50;;;34.90;44.00;;;;;;5070918;28;20202;-82
2022/06/15 12:30:21;;;;;;;3.60;3.30;;;34.70;43.90;;;;;;5047155;28;20228;-83
2022/06/15 12:32:59;;;;;;;4.00;3.57;;;34.70;43.60;;;;;;5066758;28;20208;-83
2022/06/15 12:36:01;;;;;;;5.23;3.60;;;34.60;43.40;;;;;;5062313;28;20209;-83
2022/06/15 12:39:06;;;;;;;6.60;3.20;;;34.60;44.00;;;;;;5055181;28;20210;-83
2022/06/15 12:44:25;;;;;;;4.60;3.23;;;34.40;44.50;;;;;;5063157;28;20252;-82
2022/06/15 12:46:54;;;;;;;4.30;3.47;;;34.50;45.00;;;;;;5064567;28;20218;-83
2022/06/15 12:50:05;;;;;;;5.93;3.43;;;34.60;45.00;;;;;;5070567;28;20510;-84
2022/06/15 12:52:57;;;;;;;3.97;3.00;;;34.60;44.60;;;;;;5083111;28;20209;-83
2022/06/15 12:55:48;;;;;;;5.70;3.73;;;34.60;45.10;;;;;;5046030;28;20202;-82
2022/06/15 12:58:26;;;;;;;3.80;3.30;;;34.60;44.60;;;;;;5068436;28;20269;-83
2022/06/15 13:01:05;;;;;;;4.13;3.13;;;34.70;45.00;;;;;;5047915;28;20213;-83
2022/06/15 13:03:47;;;;;;;5.23;3.43;;;34.80;45.30;;;;;;5041493;28;20661;-83
2022/06/15 13:06:29;;;;;;;4.57;3.40;;;34.80;44.20;;;;;;5069285;28;20243;-84
2022/06/15 13:09:14;;;;;;;5.53;3.77;;;34.90;44.10;;;;;;5060119;28;20222;-84
2022/06/15 13:11:59;;;;;;;5.67;3.30;;;34.80;43.70;;;;;;5067812;28;20331;-84
2022/06/15 13:14:55;;;;;;;6.43;3.37;;;34.70;43.90;;;;;;5058372;28;20198;-84
2022/06/15 13:17:26;;;;;;;5.90;3.40;;;34.80;45.00;;;;;;5050388;28;20224;-83
2022/06/15 13:20:09;;;;;;;3.67;3.37;;;34.80;44.60;;;;;;5066380;28;20292;-83
2022/06/15 13:22:42;;;;;;;3.70;3.40;;;34.90;44.50;;;;;;5054627;28;20212;-83
2022/06/15 13:25:16;;;;;;;4.43;3.40;;;35.00;44.70;;;;;;5059090;28;20206;-84
2022/06/15 13:28:08;;;;;;;4.57;3.67;;;35.00;44.10;;;;;;5072492;28;20224;-82
2022/06/15 13:30:48;;;;;;;4.33;3.80;;;35.10;44.10;;;;;;5083686;28;20199;-84
2022/06/15 13:33:17;;;;;;;6.27;3.80;;;35.00;44.40;;;;;;5064755;28;20213;-84
2022/06/15 13:35:47;;;;;;;5.33;3.90;;;35.00;44.40;;;;;;5083455;28;20197;-84
2022/06/15 13:38:22;;;;;;;5.23;3.37;;;35.00;44.00;;;;;;5062813;28;20301;-83
2022/06/15 13:41:01;;;;;;;5.70;3.67;;;35.00;44.00;;;;;;5067212;28;20225;-83
2022/06/15 13:43:51;;;;;;;4.10;3.30;;;35.00;44.10;;;;;;5053002;28;20299;-84
2022/06/15 13:46:28;;;;;;;6.60;3.53;;;35.00;43.80;;;;;;5059853;28;20218;-84
2022/06/15 13:49:05;;;;;;;4.40;3.60;;;35.00;44.30;;;;;;5076162;28;20255;-83
2022/06/15 13:51:40;;;;;;;5.40;3.63;;;35.00;43.20;;;;;;5051914;28;20206;-84
2022/06/15 13:54:21;;;;;;;4.77;3.50;;;34.90;43.60;;;;;;5052996;28;20642;-84
2022/06/15 13:57:11;;;;;;;4.33;3.57;;;34.80;43.20;;;;;;5073605;28;20204;-84